Time;durP1;ratioP1;P1;durP2;ratioP2;P2;SDS_P1;SDS_P2;PMS_P1;PMS_P2;Temp;Humidity;BMP_temperature;BMP_pressure;BME280_temperature;BME280_humidity;BME280_pressure;Samples;Min_cycle;Max_cycle;Signal;HPM_P1;HPM_P2
2024/03/27 00:01:37;;;;;;;11.23;6.10;;;12.20;67.30;;;;;;5002895;28;20698;-72
2024/03/27 00:04:03;;;;;;;17.63;6.67;;;12.00;67.70;;;;;;5007808;28;20185;-74
2024/03/27 00:06:28;;;;;;;12.27;6.90;;;12.00;68.00;;;;;;5011650;28;20268;-71
2024/03/27 00:08:55;;;;;;;10.40;6.00;;;11.90;67.90;;;;;;5014915;28;20178;-71
2024/03/27 00:11:24;;;;;;;10.10;6.30;;;12.00;67.90;;;;;;5010919;28;20237;-72
2024/03/27 00:13:50;;;;;;;9.63;6.40;;;11.90;67.90;;;;;;5011013;28;20436;-73
2024/03/27 00:16:15;;;;;;;11.70;6.90;;;12.00;67.90;;;;;;5015360;28;21036;-74
2024/03/27 00:18:41;;;;;;;15.13;6.63;;;11.90;67.70;;;;;;5013319;28;20432;-72
2024/03/27 00:21:07;;;;;;;12.37;6.63;;;11.80;67.70;;;;;;5007471;28;20234;-75
2024/03/27 00:23:33;;;;;;;9.07;6.20;;;11.80;67.90;;;;;;5005509;28;20177;-72
2024/03/27 00:25:59;;;;;;;11.30;6.23;;;11.80;67.90;;;;;;5010780;28;20297;-72
2024/03/27 00:28:25;;;;;;;12.63;7.40;;;11.70;68.00;;;;;;5014408;28;20465;-72
2024/03/27 00:30:50;;;;;;;11.13;6.43;;;11.70;68.00;;;;;;5009221;28;20475;-75
2024/03/27 00:33:16;;;;;;;10.53;5.83;;;11.80;68.00;;;;;;5013209;28;20654;-74
2024/03/27 00:35:51;;;;;;;9.03;6.20;;;11.90;67.90;;;;;;5010801;28;20213;-72
2024/03/27 00:38:17;;;;;;;11.37;6.30;;;12.00;67.90;;;;;;5014056;28;20196;-72
2024/03/27 00:40:43;;;;;;;15.00;6.70;;;11.90;67.70;;;;;;5009911;28;20465;-71
2024/03/27 00:43:08;;;;;;;9.87;6.50;;;11.80;67.90;;;;;;5008287;28;20336;-75
2024/03/27 00:45:34;;;;;;;10.10;6.13;;;11.80;68.00;;;;;;5013345;28;20417;-73
2024/03/27 00:48:00;;;;;;;11.10;6.20;;;11.80;67.90;;;;;;5010220;28;20261;-74
2024/03/27 00:50:25;;;;;;;8.90;5.67;;;11.70;68.00;;;;;;5009717;28;20571;-71
2024/03/27 00:52:51;;;;;;;9.43;6.17;;;11.60;68.30;;;;;;5006221;28;20573;-74
2024/03/27 00:55:16;;;;;;;10.63;6.00;;;11.60;68.20;;;;;;5012689;28;20181;-73
2024/03/27 00:57:43;;;;;;;10.60;5.90;;;11.60;68.20;;;;;;5010265;28;20183;-70
2024/03/27 01:00:10;;;;;;;11.63;6.07;;;11.60;68.20;;;;;;5012220;28;20214;-73
2024/03/27 01:02:36;;;;;;;8.77;4.97;;;11.60;68.20;;;;;;5007233;28;20906;-73
2024/03/27 01:05:02;;;;;;;12.07;5.10;;;11.70;68.30;;;;;;5012571;28;20429;-73
2024/03/27 01:07:27;;;;;;;12.83;6.13;;;11.60;68.30;;;;;;5010805;28;20244;-74
2024/03/27 01:09:53;;;;;;;10.77;5.80;;;11.70;68.30;;;;;;5008321;28;20182;-73
2024/03/27 01:12:19;;;;;;;8.80;5.40;;;11.70;68.00;;;;;;5008120;28;20214;-71
2024/03/27 01:14:45;;;;;;;6.17;4.47;;;11.60;68.20;;;;;;5012782;28;20201;-73
2024/03/27 01:17:10;;;;;;;8.57;4.90;;;11.60;68.30;;;;;;5011194;28;20429;-73
2024/03/27 01:19:36;;;;;;;14.13;5.80;;;11.50;68.50;;;;;;5010312;28;21068;-74
2024/03/27 01:22:01;;;;;;;16.23;5.30;;;11.50;68.50;;;;;;5003509;28;20210;-72
2024/03/27 01:24:27;;;;;;;8.23;5.33;;;11.40;68.60;;;;;;5016265;28;20277;-73
2024/03/27 01:26:53;;;;;;;11.50;5.30;;;11.30;68.80;;;;;;5008387;28;20547;-73
2024/03/27 01:29:19;;;;;;;10.83;6.10;;;11.40;68.80;;;;;;5015230;28;20607;-73
2024/03/27 01:31:44;;;;;;;11.43;6.17;;;11.20;68.90;;;;;;5009746;28;20543;-72
2024/03/27 01:34:10;;;;;;;12.13;6.30;;;11.10;68.80;;;;;;5011668;28;20667;-72
2024/03/27 01:36:35;;;;;;;8.93;5.40;;;11.00;68.90;;;;;;5006669;28;20195;-74
2024/03/27 01:39:01;;;;;;;11.80;5.10;;;11.00;68.90;;;;;;5011731;28;20186;-72
2024/03/27 01:41:28;;;;;;;6.63;4.90;;;11.00;69.10;;;;;;5007321;28;20225;-73
2024/03/27 01:43:53;;;;;;;8.00;5.27;;;11.00;69.10;;;;;;5008186;28;20178;-74
2024/03/27 01:46:20;;;;;;;10.10;5.33;;;11.00;69.10;;;;;;5009451;28;20932;-71
2024/03/27 01:48:46;;;;;;;11.47;5.43;;;10.80;69.10;;;;;;5005042;28;20190;-72
2024/03/27 01:51:12;;;;;;;8.00;4.97;;;10.70;69.20;;;;;;5006100;28;20477;-73
2024/03/27 01:53:38;;;;;;;6.87;4.33;;;10.60;69.40;;;;;;5013791;28;20846;-73
2024/03/27 01:56:05;;;;;;;9.03;3.93;;;10.50;69.40;;;;;;5011621;28;20562;-74
2024/03/27 01:58:31;;;;;;;7.03;4.13;;;10.40;69.40;;;;;;5004586;28;20429;-73
2024/03/27 02:00:56;;;;;;;7.00;3.93;;;10.50;69.40;;;;;;5005736;28;20618;-72
2024/03/27 02:03:22;;;;;;;6.50;4.40;;;10.50;69.20;;;;;;5004905;28;20434;-71
2024/03/27 02:05:49;;;;;;;9.53;4.70;;;10.40;69.40;;;;;;5011122;28;20440;-73
2024/03/27 02:08:14;;;;;;;7.60;4.90;;;10.30;69.70;;;;;;5010726;28;20193;-72
2024/03/27 02:10:40;;;;;;;9.77;4.33;;;10.40;69.50;;;;;;5004884;28;20444;-72
2024/03/27 02:13:06;;;;;;;10.23;5.33;;;10.60;69.20;;;;;;5007004;28;20220;-73
2024/03/27 02:15:31;;;;;;;11.33;5.50;;;10.50;69.40;;;;;;5009842;28;20855;-72
2024/03/27 02:17:57;;;;;;;11.10;5.30;;;10.30;69.50;;;;;;5007881;28;20256;-72
2024/03/27 02:20:23;;;;;;;10.60;5.23;;;10.20;69.80;;;;;;5005874;28;20220;-71
2024/03/27 02:22:55;;;;;;;12.70;5.60;;;10.20;69.90;;;;;;5003978;28;20691;-71
2024/03/27 02:25:32;;;;;;;9.97;5.60;;;10.10;69.90;;;;;;5011264;28;20224;-70
2024/03/27 02:27:58;;;;;;;7.40;5.23;;;10.10;70.10;;;;;;5008450;28;20486;-71
2024/03/27 02:30:23;;;;;;;9.70;5.43;;;10.10;69.80;;;;;;5009753;28;20437;-73
2024/03/27 02:32:49;;;;;;;8.47;5.03;;;10.10;69.80;;;;;;5007844;28;20456;-72
2024/03/27 02:35:18;;;;;;;8.20;4.80;;;10.10;69.90;;;;;;5014163;28;20292;-70
2024/03/27 02:37:44;;;;;;;8.67;5.20;;;10.10;69.90;;;;;;5016750;28;20209;-72
2024/03/27 02:40:10;;;;;;;10.60;4.20;;;10.10;69.90;;;;;;5008802;28;20584;-72
2024/03/27 02:42:36;;;;;;;6.80;4.07;;;10.00;70.10;;;;;;5010351;28;20611;-72
2024/03/27 02:45:01;;;;;;;10.10;4.00;;;10.00;70.10;;;;;;5013674;28;20447;-72
2024/03/27 02:47:27;;;;;;;7.90;4.17;;;9.90;70.10;;;;;;5006776;28;20563;-74
2024/03/27 02:49:53;;;;;;;7.03;4.40;;;9.80;70.10;;;;;;5006894;28;20813;-71
2024/03/27 02:52:18;;;;;;;8.10;4.70;;;9.80;70.10;;;;;;5006452;28;20712;-72
2024/03/27 02:54:44;;;;;;;9.07;4.40;;;9.80;69.90;;;;;;5007878;28;20375;-72
2024/03/27 02:57:09;;;;;;;7.27;4.13;;;9.70;70.10;;;;;;5008407;28;20190;-70
2024/03/27 02:59:35;;;;;;;6.30;4.30;;;9.80;70.20;;;;;;5002853;28;20694;-73
2024/03/27 03:02:01;;;;;;;8.70;4.00;;;9.70;70.10;;;;;;5007729;28;20213;-71
2024/03/27 03:04:26;;;;;;;10.30;4.27;;;9.60;70.40;;;;;;5003823;28;20196;-72
2024/03/27 03:06:52;;;;;;;7.47;4.20;;;9.50;70.50;;;;;;5007011;28;20548;-71
2024/03/27 03:09:18;;;;;;;7.37;4.47;;;9.40;70.80;;;;;;5011291;28;20182;-73
2024/03/27 03:11:44;;;;;;;9.00;4.30;;;9.30;71.00;;;;;;5003081;28;20309;-73
2024/03/27 03:14:09;;;;;;;7.87;4.77;;;9.40;71.00;;;;;;5004704;28;20846;-73
2024/03/27 03:16:35;;;;;;;8.90;4.43;;;9.30;71.10;;;;;;5009654;28;20182;-72
2024/03/27 03:19:00;;;;;;;8.70;4.20;;;9.30;71.40;;;;;;5011875;28;20221;-74
2024/03/27 03:21:26;;;;;;;8.33;4.63;;;9.20;71.40;;;;;;5003447;28;20283;-73
2024/03/27 03:23:51;;;;;;;7.17;4.40;;;9.30;71.40;;;;;;5002740;28;20178;-72
2024/03/27 03:26:17;;;;;;;13.47;5.23;;;9.40;71.10;;;;;;5008692;28;20185;-71
2024/03/27 03:28:43;;;;;;;12.50;5.57;;;9.40;71.30;;;;;;5007781;28;20228;-71
2024/03/27 03:31:08;;;;;;;10.83;4.80;;;9.30;71.70;;;;;;5004140;28;20786;-71
2024/03/27 03:33:34;;;;;;;10.57;5.10;;;9.30;71.70;;;;;;5006560;28;20581;-72
2024/03/27 03:36:00;;;;;;;7.80;5.00;;;9.30;71.80;;;;;;5009728;28;20189;-70
2024/03/27 03:38:26;;;;;;;10.63;4.70;;;9.20;71.80;;;;;;5006348;28;20189;-71
2024/03/27 03:41:01;;;;;;;6.13;3.83;;;9.10;72.10;;;;;;5004765;28;20476;-72
2024/03/27 03:43:27;;;;;;;8.40;4.80;;;9.20;72.00;;;;;;5001770;28;20232;-71
2024/03/27 03:45:52;;;;;;;5.83;4.53;;;9.10;72.00;;;;;;5009614;28;20941;-75
2024/03/27 03:48:18;;;;;;;9.13;4.73;;;9.10;72.30;;;;;;5012255;28;20189;-73
2024/03/27 03:50:43;;;;;;;6.57;4.13;;;9.00;72.40;;;;;;5005455;28;20192;-71
2024/03/27 03:53:09;;;;;;;7.83;4.50;;;9.00;72.90;;;;;;5024670;28;20217;-73
2024/03/27 03:55:35;;;;;;;7.23;4.27;;;9.00;72.90;;;;;;5012750;28;20182;-74
2024/03/27 03:58:00;;;;;;;6.43;4.93;;;9.00;73.00;;;;;;5013773;28;20659;-71
2024/03/27 04:00:26;;;;;;;6.60;4.40;;;9.00;73.20;;;;;;5009015;28;20469;-71
2024/03/27 04:02:52;;;;;;;11.67;4.80;;;9.00;73.20;;;;;;5000729;28;20206;-73
2024/03/27 04:05:18;;;;;;;9.77;4.50;;;9.10;73.20;;;;;;5003607;28;20636;-73
2024/03/27 04:07:47;;;;;;;6.43;4.40;;;9.00;73.20;;;;;;5007108;28;20436;-73
2024/03/27 04:10:12;;;;;;;7.70;4.27;;;9.10;73.20;;;;;;5011542;28;20824;-72
2024/03/27 04:12:38;;;;;;;9.33;4.50;;;9.10;73.00;;;;;;5004413;28;20473;-72
2024/03/27 04:15:05;;;;;;;9.97;4.80;;;9.10;73.20;;;;;;5009607;28;20554;-73
2024/03/27 04:17:31;;;;;;;10.40;5.03;;;9.00;73.30;;;;;;5009029;28;20193;-71
2024/03/27 04:20:01;;;;;;;9.60;5.60;;;9.00;73.30;;;;;;5010648;28;20515;-71
2024/03/27 04:22:31;;;;;;;9.60;4.80;;;9.00;73.20;;;;;;5003717;28;20458;-73
2024/03/27 04:24:56;;;;;;;9.47;5.10;;;8.90;73.20;;;;;;5009625;28;20429;-73
2024/03/27 04:27:22;;;;;;;10.53;5.20;;;8.90;73.90;;;;;;5014442;28;20953;-72
2024/03/27 04:29:52;;;;;;;9.83;6.53;;;8.90;73.90;;;;;;5007398;28;20557;-73
2024/03/27 04:32:17;;;;;;;11.07;6.43;;;8.70;74.20;;;;;;5003546;28;20221;-73
2024/03/27 04:34:43;;;;;;;8.00;5.73;;;8.60;74.80;;;;;;5006440;28;20489;-72
2024/03/27 04:37:08;;;;;;;10.97;5.40;;;8.70;75.40;;;;;;5010801;28;20178;-72
2024/03/27 04:39:35;;;;;;;10.40;5.60;;;8.60;75.40;;;;;;5005756;28;20729;-72
2024/03/27 04:42:01;;;;;;;10.97;5.63;;;8.60;75.50;;;;;;5007150;28;20300;-71
2024/03/27 04:44:27;;;;;;;10.27;5.47;;;8.50;75.50;;;;;;5009343;28;20458;-71
2024/03/27 04:46:53;;;;;;;9.33;5.77;;;8.50;75.50;;;;;;5015533;28;20834;-72
2024/03/27 04:49:18;;;;;;;11.17;5.90;;;8.40;75.50;;;;;;5006322;28;20444;-72
2024/03/27 04:51:44;;;;;;;12.77;6.40;;;8.50;75.50;;;;;;5005751;28;20209;-74
2024/03/27 04:54:09;;;;;;;8.83;6.00;;;8.40;75.80;;;;;;5006362;28;20651;-72
2024/03/27 04:56:35;;;;;;;10.30;5.67;;;8.30;75.90;;;;;;5012781;28;20653;-71
2024/03/27 04:59:01;;;;;;;10.80;5.77;;;8.30;76.50;;;;;;5004710;28;20187;-73
2024/03/27 05:01:26;;;;;;;10.67;6.07;;;8.40;76.80;;;;;;5007639;28;20217;-71
2024/03/27 05:03:52;;;;;;;10.30;5.73;;;8.40;76.70;;;;;;5004841;28;20186;-71
2024/03/27 05:06:17;;;;;;;10.70;5.63;;;8.60;76.40;;;;;;5012936;28;20178;-72
2024/03/27 05:08:44;;;;;;;12.57;5.77;;;8.60;75.70;;;;;;5011696;28;20370;-72
2024/03/27 05:11:10;;;;;;;9.73;6.20;;;8.60;75.70;;;;;;5007270;28;20882;-73
2024/03/27 05:13:35;;;;;;;8.37;5.77;;;8.50;76.10;;;;;;5009537;28;20776;-72
2024/03/27 05:16:01;;;;;;;11.50;6.30;;;8.40;76.20;;;;;;5006986;28;20744;-71
2024/03/27 05:18:27;;;;;;;10.60;6.50;;;8.40;76.70;;;;;;5007376;28;20190;-72
2024/03/27 05:20:53;;;;;;;10.87;5.87;;;8.30;76.70;;;;;;5006813;28;20228;-72
2024/03/27 05:23:18;;;;;;;11.27;5.47;;;8.20;77.30;;;;;;5006675;28;20297;-74
2024/03/27 05:25:44;;;;;;;9.77;6.20;;;8.20;77.60;;;;;;5011240;28;20412;-73
2024/03/27 05:28:10;;;;;;;8.73;6.13;;;8.20;77.70;;;;;;5005560;28;20644;-72
2024/03/27 05:30:36;;;;;;;9.67;5.60;;;8.30;77.70;;;;;;5008348;28;20190;-71
2024/03/27 05:33:02;;;;;;;11.57;6.20;;;8.50;77.30;;;;;;5000651;28;20449;-73
2024/03/27 05:35:27;;;;;;;8.10;5.33;;;8.50;76.80;;;;;;5012064;28;20182;-72
2024/03/27 05:37:54;;;;;;;10.17;6.13;;;8.50;76.40;;;;;;5005205;28;20220;-73
2024/03/27 05:40:20;;;;;;;13.20;6.43;;;8.50;76.20;;;;;;5004171;28;20206;-72
2024/03/27 05:42:45;;;;;;;9.67;6.10;;;8.60;76.10;;;;;;5005941;28;20526;-72
2024/03/27 05:45:11;;;;;;;15.10;6.57;;;8.60;76.20;;;;;;5012470;28;20424;-73
2024/03/27 05:47:37;;;;;;;11.33;6.80;;;8.60;76.20;;;;;;5011308;28;20189;-73
2024/03/27 05:50:05;;;;;;;11.07;6.20;;;8.60;76.20;;;;;;5011093;28;20732;-74
2024/03/27 05:52:30;;;;;;;14.00;7.60;;;8.50;76.40;;;;;;5000146;28;20464;-73
2024/03/27 05:54:56;;;;;;;10.37;6.77;;;8.50;76.80;;;;;;5012208;28;20440;-75
2024/03/27 05:57:22;;;;;;;12.83;6.93;;;8.40;77.10;;;;;;5014479;28;20189;-72
2024/03/27 05:59:50;;;;;;;14.17;7.73;;;8.50;77.40;;;;;;5025107;28;20217;-71
2024/03/27 06:02:16;;;;;;;11.50;6.57;;;8.60;77.30;;;;;;5012063;28;20229;-73
2024/03/27 06:04:41;;;;;;;10.53;6.53;;;8.70;77.30;;;;;;5007787;28;20440;-72
2024/03/27 06:07:07;;;;;;;16.27;7.00;;;8.80;77.00;;;;;;5009151;28;20182;-72
2024/03/27 06:09:34;;;;;;;12.03;6.87;;;8.90;76.80;;;;;;5014234;28;20647;-72
2024/03/27 06:11:59;;;;;;;11.17;6.63;;;8.80;76.40;;;;;;5006744;28;20220;-74
2024/03/27 06:14:25;;;;;;;11.20;7.10;;;8.80;76.50;;;;;;5011794;28;20429;-72
2024/03/27 06:16:50;;;;;;;11.23;6.67;;;8.90;76.40;;;;;;5011180;28;20186;-73
2024/03/27 06:19:16;;;;;;;12.23;6.83;;;9.00;76.40;;;;;;5017965;28;20281;-73
2024/03/27 06:21:42;;;;;;;11.00;6.60;;;9.10;75.80;;;;;;5012388;28;20259;-73
2024/03/27 06:24:08;;;;;;;13.03;7.20;;;9.30;75.40;;;;;;5013031;28;20204;-72
2024/03/27 06:26:34;;;;;;;11.60;6.77;;;9.30;74.80;;;;;;5011864;28;20527;-73
2024/03/27 06:29:00;;;;;;;12.57;7.50;;;9.30;75.10;;;;;;5017040;28;20196;-71
2024/03/27 06:31:26;;;;;;;14.43;7.27;;;9.40;74.80;;;;;;5011849;28;20495;-71
2024/03/27 06:33:51;;;;;;;10.20;6.23;;;9.40;74.50;;;;;;5015378;28;20702;-74
2024/03/27 06:36:17;;;;;;;9.93;7.10;;;9.40;74.80;;;;;;5019527;28;20194;-71
2024/03/27 06:38:42;;;;;;;11.27;6.53;;;9.50;74.30;;;;;;5029321;22;20186;-70
2024/03/27 06:41:08;;;;;;;11.77;6.67;;;9.60;74.20;;;;;;4999265;28;20237;-71
2024/03/27 06:43:34;;;;;;;11.97;7.80;;;9.70;73.70;;;;;;5007952;28;20193;-72
2024/03/27 06:45:59;;;;;;;15.50;7.47;;;9.80;73.70;;;;;;5008528;28;20189;-71
2024/03/27 06:48:32;;;;;;;13.20;7.83;;;9.90;73.60;;;;;;5003006;28;20186;-70
2024/03/27 06:50:58;;;;;;;12.67;8.00;;;10.00;72.70;;;;;;5001212;28;20221;-69
2024/03/27 06:53:24;;;;;;;12.87;8.03;;;9.90;72.30;;;;;;5009210;28;20429;-68
2024/03/27 06:55:50;;;;;;;15.30;7.70;;;10.00;72.40;;;;;;5008721;28;20508;-72
2024/03/27 06:58:16;;;;;;;11.33;7.50;;;10.10;72.10;;;;;;5004102;28;20788;-72
2024/03/27 07:00:42;;;;;;;14.40;8.40;;;10.20;72.00;;;;;;5000953;28;20222;-70
2024/03/27 07:03:07;;;;;;;10.03;6.83;;;10.20;71.40;;;;;;5005798;28;20437;-72
2024/03/27 07:05:34;;;;;;;12.60;7.80;;;10.10;71.40;;;;;;5010593;28;20643;-72
2024/03/27 07:08:00;;;;;;;16.13;8.30;;;10.10;71.30;;;;;;5009670;28;20645;-72
2024/03/27 07:10:26;;;;;;;15.90;8.90;;;10.20;71.10;;;;;;5006069;28;20434;-69
2024/03/27 07:12:51;;;;;;;13.93;8.23;;;10.10;70.40;;;;;;5006819;28;20213;-71
2024/03/27 07:15:17;;;;;;;15.37;8.80;;;10.00;70.70;;;;;;5012083;28;20738;-72
2024/03/27 07:17:45;;;;;;;14.23;8.10;;;10.20;70.20;;;;;;5008895;28;20608;-70
2024/03/27 07:20:11;;;;;;;16.17;7.63;;;10.10;69.90;;;;;;5008276;28;20236;-72
2024/03/27 07:22:37;;;;;;;12.70;8.50;;;10.10;70.10;;;;;;5006185;28;20473;-73
2024/03/27 07:25:04;;;;;;;21.00;9.07;;;10.10;70.10;;;;;;5008712;28;20533;-72
2024/03/27 07:27:33;;;;;;;17.20;8.17;;;10.10;70.10;;;;;;5006050;28;20560;-73
2024/03/27 07:29:59;;;;;;;16.80;7.70;;;10.20;69.90;;;;;;5009318;28;20482;-70
2024/03/27 07:32:24;;;;;;;16.07;8.50;;;10.30;69.90;;;;;;5006965;28;20461;-72
2024/03/27 07:34:50;;;;;;;12.10;7.47;;;10.40;69.70;;;;;;5010012;28;20320;-71
2024/03/27 07:37:15;;;;;;;15.70;8.43;;;10.50;69.40;;;;;;5000622;28;20225;-71
2024/03/27 07:39:41;;;;;;;16.20;8.50;;;10.60;69.20;;;;;;5002730;28;20221;-72
2024/03/27 07:42:07;;;;;;;10.10;7.27;;;10.90;68.80;;;;;;5002260;28;20682;-71
2024/03/27 07:44:32;;;;;;;13.03;7.87;;;11.10;67.70;;;;;;5009378;28;20205;-72
2024/03/27 07:46:58;;;;;;;14.20;8.20;;;11.20;67.30;;;;;;5005631;28;20325;-71
2024/03/27 07:49:24;;;;;;;14.83;8.80;;;11.30;66.90;;;;;;5006893;28;20663;-73
2024/03/27 07:51:49;;;;;;;15.83;8.00;;;11.40;66.40;;;;;;5000312;28;20468;-72
2024/03/27 07:54:15;;;;;;;13.73;7.60;;;11.40;66.40;;;;;;5007167;28;20202;-70
2024/03/27 07:56:44;;;;;;;16.87;7.90;;;11.50;66.30;;;;;;5009296;28;20193;-73
2024/03/27 07:59:10;;;;;;;13.33;9.33;;;11.40;66.60;;;;;;5000333;28;20321;-72
2024/03/27 08:01:36;;;;;;;13.17;7.80;;;11.30;66.40;;;;;;5004538;28;20478;-73
2024/03/27 08:04:01;;;;;;;18.23;9.07;;;11.30;66.60;;;;;;5008065;28;20456;-70
2024/03/27 08:06:27;;;;;;;11.67;8.10;;;11.50;66.60;;;;;;5002496;28;20291;-70
2024/03/27 08:08:52;;;;;;;13.90;7.90;;;11.20;67.00;;;;;;5005521;28;20186;-72
2024/03/27 08:11:18;;;;;;;11.23;7.53;;;11.30;67.20;;;;;;4998416;28;20859;-73
2024/03/27 08:13:43;;;;;;;13.60;7.00;;;11.60;67.20;;;;;;5006041;28;20778;-73
2024/03/27 08:16:09;;;;;;;10.87;7.03;;;11.70;67.20;;;;;;5008397;28;20213;-73
2024/03/27 08:18:44;;;;;;;11.90;6.97;;;11.80;66.90;;;;;;5000161;28;20189;-72
2024/03/27 08:21:10;;;;;;;12.07;6.90;;;11.70;66.70;;;;;;4995594;28;20225;-72
2024/03/27 08:23:35;;;;;;;14.03;7.10;;;11.80;67.50;;;;;;5003369;28;20413;-72
2024/03/27 08:26:02;;;;;;;13.77;7.10;;;11.80;67.70;;;;;;5008792;28;21206;-73
2024/03/27 08:28:28;;;;;;;9.93;6.33;;;11.80;68.00;;;;;;5002420;28;20270;-72
2024/03/27 08:30:54;;;;;;;13.13;7.43;;;11.60;67.70;;;;;;5007254;28;20564;-74
2024/03/27 08:33:21;;;;;;;11.33;6.77;;;11.60;68.30;;;;;;5001130;28;20527;-71
2024/03/27 08:35:47;;;;;;;12.97;7.47;;;11.60;68.50;;;;;;5012504;28;20186;-73
2024/03/27 08:38:13;;;;;;;15.23;7.10;;;11.60;68.30;;;;;;5013346;28;20455;-72
2024/03/27 08:40:38;;;;;;;11.20;6.00;;;11.60;69.10;;;;;;5006366;28;20992;-70
2024/03/27 08:43:04;;;;;;;9.87;6.50;;;11.70;68.30;;;;;;5002397;28;20282;-72
2024/03/27 08:45:29;;;;;;;11.33;6.00;;;11.70;68.50;;;;;;5012615;28;20185;-71
2024/03/27 08:47:55;;;;;;;16.17;7.00;;;11.70;68.50;;;;;;5011330;28;20189;-72
2024/03/27 08:50:20;;;;;;;10.20;6.83;;;11.70;68.30;;;;;;5015570;28;20182;-73
2024/03/27 08:52:47;;;;;;;14.50;7.20;;;11.80;67.90;;;;;;5006166;28;20227;-73
2024/03/27 08:55:13;;;;;;;14.07;7.23;;;11.80;68.50;;;;;;5012040;28;20271;-74
2024/03/27 08:57:39;;;;;;;14.50;8.40;;;11.70;68.50;;;;;;5009226;28;20513;-73
2024/03/27 09:00:05;;;;;;;15.73;7.17;;;11.70;68.80;;;;;;5012467;28;20495;-72
2024/03/27 09:02:31;;;;;;;14.07;6.77;;;11.80;68.60;;;;;;5009478;28;20457;-73
2024/03/27 09:04:56;;;;;;;17.83;7.63;;;12.00;68.20;;;;;;5007277;28;20494;-72
2024/03/27 09:07:22;;;;;;;12.90;7.33;;;12.10;67.70;;;;;;5004888;28;20185;-71
2024/03/27 09:09:48;;;;;;;10.70;7.23;;;12.30;67.30;;;;;;5007937;28;20232;-72
2024/03/27 09:12:14;;;;;;;14.67;7.20;;;12.20;66.90;;;;;;4999809;28;20492;-72
2024/03/27 09:14:40;;;;;;;12.03;7.23;;;12.20;66.60;;;;;;5009785;28;20178;-71
2024/03/27 09:17:05;;;;;;;14.37;7.20;;;12.20;66.70;;;;;;5005114;28;20449;-72
2024/03/27 09:19:31;;;;;;;11.63;7.10;;;12.20;66.40;;;;;;5006014;28;20193;-72
2024/03/27 09:21:58;;;;;;;10.70;6.70;;;12.30;66.30;;;;;;5007975;28;20230;-72
2024/03/27 09:24:24;;;;;;;12.53;7.17;;;12.30;66.40;;;;;;5009663;28;20189;-72
2024/03/27 09:26:50;;;;;;;10.83;6.63;;;12.60;66.30;;;;;;5007761;28;20432;-73
2024/03/27 09:29:16;;;;;;;15.27;7.33;;;12.80;65.70;;;;;;5006005;28;20201;-71
2024/03/27 09:31:42;;;;;;;13.37;7.30;;;12.90;65.10;;;;;;5003996;28;20994;-71
2024/03/27 09:34:08;;;;;;;16.67;7.13;;;13.00;65.40;;;;;;5006211;28;20221;-74
2024/03/27 09:36:34;;;;;;;13.93;7.80;;;13.10;65.00;;;;;;5007378;28;20424;-73
2024/03/27 09:38:59;;;;;;;18.40;8.40;;;13.30;65.00;;;;;;5006214;28;20445;-74
2024/03/27 09:41:25;;;;;;;11.83;7.70;;;13.10;64.20;;;;;;5002757;28;20222;-74
2024/03/27 09:43:52;;;;;;;16.70;7.70;;;13.10;64.20;;;;;;5007897;28;20185;-73
2024/03/27 09:46:18;;;;;;;12.70;9.10;;;13.10;64.20;;;;;;4999297;28;20182;-72
2024/03/27 09:48:45;;;;;;;12.60;7.43;;;13.30;64.10;;;;;;5004259;28;20469;-73
2024/03/27 09:51:13;;;;;;;15.53;8.40;;;13.40;63.80;;;;;;5007140;28;20233;-73
2024/03/27 09:53:43;;;;;;;11.87;8.00;;;13.50;63.50;;;;;;5011343;28;20417;-71
2024/03/27 09:56:09;;;;;;;13.03;7.80;;;13.50;63.10;;;;;;5006227;28;20545;-72
2024/03/27 09:58:35;;;;;;;16.13;7.70;;;13.50;63.20;;;;;;5005654;28;20951;-73
2024/03/27 10:01:02;;;;;;;13.50;7.07;;;13.70;63.20;;;;;;5008245;28;20487;-71
2024/03/27 10:03:28;;;;;;;15.90;8.47;;;13.80;62.90;;;;;;5011391;28;20481;-72
2024/03/27 10:05:58;;;;;;;14.93;7.83;;;13.90;63.20;;;;;;5008698;28;20452;-72
2024/03/27 10:08:25;;;;;;;11.67;6.80;;;14.00;62.80;;;;;;5006959;28;20707;-73
2024/03/27 10:10:50;;;;;;;11.30;6.03;;;14.00;62.90;;;;;;4997822;28;20433;-72
2024/03/27 10:13:20;;;;;;;12.37;7.30;;;14.20;63.10;;;;;;5003721;28;20451;-72
2024/03/27 10:15:48;;;;;;;16.80;8.70;;;14.00;63.20;;;;;;5007574;28;20198;-72
2024/03/27 10:18:14;;;;;;;11.00;7.17;;;13.60;64.20;;;;;;5013579;28;20440;-72
2024/03/27 10:20:42;;;;;;;13.40;6.93;;;13.70;65.00;;;;;;5003959;28;20481;-74
2024/03/27 10:23:09;;;;;;;14.50;6.50;;;13.60;64.70;;;;;;5004684;28;20524;-74
2024/03/27 10:25:38;;;;;;;18.70;7.77;;;13.80;65.00;;;;;;5003241;28;20695;-75
2024/03/27 10:28:05;;;;;;;14.13;7.17;;;13.40;65.40;;;;;;5006084;28;20449;-73
2024/03/27 10:30:31;;;;;;;11.73;6.47;;;13.10;65.70;;;;;;5008376;28;20428;-73
2024/03/27 10:32:56;;;;;;;11.30;6.60;;;13.20;66.30;;;;;;5001102;28;20437;-72
2024/03/27 10:35:36;;;;;;;11.80;7.30;;;13.30;66.10;;;;;;5006372;28;20690;-72
2024/03/27 10:38:02;;;;;;;14.10;6.97;;;13.40;66.00;;;;;;5002297;28;20190;-73
2024/03/27 10:40:29;;;;;;;16.47;8.57;;;13.50;66.30;;;;;;5011051;28;20989;-73
2024/03/27 10:43:03;;;;;;;14.13;7.50;;;13.60;66.10;;;;;;5000141;28;21182;-72
2024/03/27 10:45:30;;;;;;;12.57;7.77;;;13.70;66.30;;;;;;5006276;28;20417;-72
2024/03/27 10:47:57;;;;;;;14.67;8.30;;;13.70;66.30;;;;;;5003947;28;20436;-72
2024/03/27 10:50:25;;;;;;;16.17;8.23;;;13.80;66.00;;;;;;5009866;28;20461;-72
2024/03/27 10:52:52;;;;;;;9.80;7.83;;;13.70;66.00;;;;;;5004391;28;20569;-72
2024/03/27 10:55:18;;;;;;;12.97;8.30;;;13.50;66.30;;;;;;5008425;28;20437;-72
2024/03/27 10:57:45;;;;;;;14.80;8.00;;;13.50;66.60;;;;;;5001163;28;20750;-72
2024/03/27 11:00:12;;;;;;;11.03;7.80;;;13.70;66.60;;;;;;4997201;28;20476;-72
2024/03/27 11:02:47;;;;;;;11.20;7.90;;;13.90;66.30;;;;;;5006371;28;20469;-73
2024/03/27 11:05:15;;;;;;;12.97;7.20;;;13.80;66.00;;;;;;5005581;28;20432;-72
2024/03/27 11:07:41;;;;;;;9.10;6.53;;;13.70;66.30;;;;;;5005706;28;20961;-72
2024/03/27 11:10:07;;;;;;;13.00;7.90;;;13.50;66.30;;;;;;5009249;28;20472;-72
2024/03/27 11:12:33;;;;;;;14.87;8.17;;;13.30;67.00;;;;;;5004746;28;20472;-71
2024/03/27 11:15:04;;;;;;;13.00;7.50;;;13.40;67.50;;;;;;5009244;28;20185;-75
2024/03/27 11:17:30;;;;;;;15.23;7.60;;;13.10;68.00;;;;;;5004498;28;20435;-72
2024/03/27 11:19:59;;;;;;;14.37;8.43;;;13.00;68.50;;;;;;5005327;28;20526;-72
2024/03/27 11:22:25;;;;;;;14.17;7.83;;;13.00;68.80;;;;;;5002223;28;20492;-71
2024/03/27 11:24:51;;;;;;;13.97;8.13;;;13.00;69.40;;;;;;5008465;28;20955;-73
2024/03/27 11:27:26;;;;;;;14.73;6.80;;;13.00;69.20;;;;;;5005836;28;20409;-73
2024/03/27 11:30:01;;;;;;;15.50;7.57;;;12.90;69.50;;;;;;5003553;28;20677;-73
2024/03/27 11:32:34;;;;;;;12.90;7.50;;;12.80;70.50;;;;;;4999262;28;20877;-71
2024/03/27 11:35:04;;;;;;;13.27;7.40;;;12.50;71.70;;;;;;5002939;28;20442;-72
2024/03/27 11:37:30;;;;;;;14.07;7.40;;;12.10;72.40;;;;;;5006176;28;20417;-73
2024/03/27 11:39:55;;;;;;;10.80;7.07;;;12.10;73.00;;;;;;5009345;28;20615;-72
2024/03/27 11:42:21;;;;;;;12.97;7.30;;;12.20;72.40;;;;;;5000646;28;20464;-72
2024/03/27 11:44:47;;;;;;;13.50;6.33;;;12.20;72.70;;;;;;5008841;28;20190;-74
2024/03/27 11:47:16;;;;;;;12.83;6.73;;;12.50;72.60;;;;;;5000917;28;20205;-72
2024/03/27 11:49:42;;;;;;;9.90;6.47;;;12.70;70.80;;;;;;5009688;28;20201;-70
2024/03/27 11:52:08;;;;;;;19.23;6.50;;;12.70;71.30;;;;;;5000558;28;20464;-72
2024/03/27 11:54:34;;;;;;;12.10;6.93;;;12.90;70.10;;;;;;5003451;28;20835;-71
2024/03/27 11:56:59;;;;;;;10.77;5.77;;;12.80;69.40;;;;;;5011651;28;20428;-73
2024/03/27 11:59:25;;;;;;;11.40;5.80;;;12.70;69.40;;;;;;5004448;28;20182;-72
2024/03/27 12:01:51;;;;;;;9.60;4.83;;;12.60;69.50;;;;;;4997450;28;20304;-72
2024/03/27 12:04:16;;;;;;;12.30;4.90;;;12.30;70.10;;;;;;5003379;28;20204;-72
2024/03/27 12:06:43;;;;;;;8.83;4.77;;;12.20;70.40;;;;;;5001612;28;20277;-73
2024/03/27 12:09:15;;;;;;;8.20;3.80;;;12.20;71.10;;;;;;5001079;28;20689;-71
2024/03/27 12:11:41;;;;;;;8.23;3.80;;;12.30;70.20;;;;;;5003188;28;20452;-71
2024/03/27 12:14:13;;;;;;;8.00;3.47;;;12.40;69.50;;;;;;5011263;28;20415;-72
2024/03/27 12:16:39;;;;;;;5.27;2.57;;;12.50;68.90;;;;;;5012417;28;20584;-72
2024/03/27 12:19:05;;;;;;;4.77;2.60;;;12.40;68.90;;;;;;5012951;28;20510;-74
2024/03/27 12:21:30;;;;;;;3.73;2.20;;;12.40;68.80;;;;;;5008602;28;20663;-74
2024/03/27 12:23:56;;;;;;;3.40;2.10;;;12.70;68.20;;;;;;5011516;28;20201;-72
2024/03/27 12:26:22;;;;;;;5.57;2.17;;;12.40;67.70;;;;;;5011919;28;20225;-72
2024/03/27 12:28:50;;;;;;;2.77;1.70;;;12.50;67.30;;;;;;5009477;28;20723;-75
2024/03/27 12:31:23;;;;;;;2.67;1.70;;;12.50;66.70;;;;;;5005337;28;20627;-73
2024/03/27 12:33:49;;;;;;;4.00;2.00;;;12.50;67.00;;;;;;5008403;28;20444;-74
2024/03/27 12:36:15;;;;;;;3.60;2.30;;;12.50;66.90;;;;;;5004703;28;21140;-73
2024/03/27 12:38:41;;;;;;;2.97;1.70;;;12.70;66.40;;;;;;5008030;28;20655;-73